createdAt,value
2019-01-23T00:01:20.710Z,51.10
2019-01-23T00:03:50.464Z,47.23
2019-01-23T00:06:20.234Z,50.03
2019-01-23T00:08:49.895Z,47.70
2019-01-23T00:11:19.578Z,47.97
2019-01-23T00:13:49.240Z,50.60
2019-01-23T00:16:18.909Z,53.97
2019-01-23T00:18:48.912Z,45.63
2019-01-23T00:21:18.594Z,47.47
2019-01-23T00:23:48.298Z,48.73
2019-01-23T00:26:18.019Z,47.67
2019-01-23T00:28:47.629Z,46.37
2019-01-23T00:31:18.822Z,45.40
2019-01-23T00:33:48.607Z,47.17
2019-01-23T00:36:19.615Z,45.50
2019-01-23T00:38:49.285Z,46.27
2019-01-23T00:41:18.983Z,46.53
2019-01-23T00:43:48.722Z,44.50
2019-01-23T00:46:18.403Z,45.83
2019-01-23T00:48:48.086Z,44.13
2019-01-23T00:51:17.747Z,44.90
2019-01-23T00:53:48.746Z,45.67
2019-01-23T00:56:18.444Z,45.77
2019-01-23T00:58:49.221Z,45.93
2019-01-23T01:01:19.304Z,45.77
2019-01-23T01:03:49.005Z,45.40
2019-01-23T01:06:18.700Z,45.43
2019-01-23T01:08:48.614Z,46.57
2019-01-23T01:11:18.320Z,46.20
2019-01-23T01:13:48.108Z,44.23
2019-01-23T01:16:17.793Z,45.77
2019-01-23T01:18:47.464Z,46.03
2019-01-23T01:21:17.126Z,46.50
2019-01-23T01:23:46.916Z,45.97
2019-01-23T01:26:16.729Z,45.50
2019-01-23T01:28:46.390Z,47.53
2019-01-23T01:31:16.133Z,46.53
2019-01-23T01:33:45.822Z,48.40
2019-01-23T01:36:15.488Z,47.43
2019-01-23T01:38:45.806Z,48.03
2019-01-23T01:41:15.576Z,46.07
2019-01-23T01:43:45.316Z,45.40
2019-01-23T01:46:14.989Z,46.07
2019-01-23T01:48:44.683Z,46.07
2019-01-23T01:51:14.353Z,45.67
2019-01-23T01:53:43.998Z,46.43
2019-01-23T01:56:13.679Z,44.77
2019-01-23T01:58:43.356Z,46.80
2019-01-23T02:01:13.095Z,45.47
2019-01-23T02:03:42.858Z,45.47
2019-01-23T02:06:12.528Z,46.23
2019-01-23T02:08:42.279Z,46.33
2019-01-23T02:11:11.995Z,44.83
2019-01-23T02:13:41.632Z,46.23
2019-01-23T02:16:11.413Z,46.90
2019-01-23T02:18:41.965Z,44.93
2019-01-23T02:21:12.565Z,46.23
2019-01-23T02:23:42.306Z,45.23
2019-01-23T02:26:12.070Z,44.37
2019-01-23T02:28:41.728Z,44.87
2019-01-23T02:31:11.515Z,43.20
2019-01-23T02:33:41.207Z,43.23
2019-01-23T02:36:10.854Z,44.07
2019-01-23T02:38:40.526Z,44.30
2019-01-23T02:41:10.291Z,43.77
2019-01-23T02:43:39.965Z,42.27
2019-01-23T02:46:09.690Z,41.93
2019-01-23T02:48:39.375Z,41.60
2019-01-23T02:51:09.133Z,41.93
2019-01-23T02:53:38.871Z,42.40
2019-01-23T02:56:08.561Z,41.13
2019-01-23T02:58:38.284Z,41.47
2019-01-23T03:01:07.955Z,40.83
2019-01-23T03:03:37.934Z,40.53
2019-01-23T03:06:07.614Z,41.00
2019-01-23T03:08:37.271Z,41.40
2019-01-23T03:11:07.179Z,40.00
2019-01-23T03:13:36.846Z,42.40
2019-01-23T03:16:06.597Z,41.10
2019-01-23T03:18:36.439Z,41.13
2019-01-23T03:21:06.448Z,41.97
2019-01-23T03:23:36.401Z,41.27
2019-01-23T03:26:06.085Z,42.10
2019-01-23T03:28:35.754Z,41.97
2019-01-23T03:31:05.422Z,42.57
2019-01-23T03:33:35.117Z,42.83
2019-01-23T03:36:07.517Z,43.67
2019-01-23T03:38:37.165Z,43.10
2019-01-23T03:41:06.933Z,42.63
2019-01-23T03:43:36.905Z,41.93
2019-01-23T03:46:06.570Z,41.90
2019-01-23T03:48:36.256Z,42.87
2019-01-23T03:51:06.218Z,42.47
2019-01-23T03:53:35.883Z,41.87
2019-01-23T03:56:06.084Z,42.13
2019-01-23T03:58:36.238Z,41.30
2019-01-23T04:01:06.105Z,42.57
2019-01-23T04:03:36.260Z,41.93
2019-01-23T04:06:06.412Z,42.20
2019-01-23T04:08:36.101Z,41.10
2019-01-23T04:11:06.072Z,41.70
2019-01-23T04:13:35.742Z,42.07
2019-01-23T04:16:05.799Z,41.00
2019-01-23T04:18:36.789Z,42.97
2019-01-23T04:21:06.690Z,41.23
2019-01-23T04:23:36.833Z,42.27
2019-01-23T04:26:06.517Z,42.17
2019-01-23T04:28:36.199Z,42.43
2019-01-23T04:31:06.174Z,41.97
2019-01-23T04:33:35.856Z,43.97
2019-01-23T04:36:05.910Z,42.63
2019-01-23T04:38:35.568Z,41.23
2019-01-23T04:41:05.249Z,42.00
2019-01-23T04:43:34.920Z,42.53
2019-01-23T04:46:04.785Z,43.10
2019-01-23T04:48:34.634Z,43.80
2019-01-23T04:51:06.176Z,42.30
2019-01-23T04:53:37.466Z,42.33
2019-01-23T04:56:07.153Z,43.13
2019-01-23T04:58:36.819Z,43.47
2019-01-23T05:01:06.734Z,43.70
2019-01-23T05:03:36.414Z,42.90
2019-01-23T05:06:06.928Z,42.97
2019-01-23T05:08:36.603Z,43.27
2019-01-23T05:11:06.277Z,43.47
2019-01-23T05:13:36.037Z,43.30
2019-01-23T05:16:06.122Z,43.77
2019-01-23T05:18:35.820Z,44.50
2019-01-23T05:21:05.883Z,43.57
2019-01-23T05:23:35.566Z,43.97
2019-01-23T05:26:05.320Z,43.67
2019-01-23T05:28:35.186Z,43.57
2019-01-23T05:31:05.058Z,44.97
2019-01-23T05:33:34.741Z,43.17
2019-01-23T05:36:04.402Z,44.77
2019-01-23T05:38:34.134Z,43.83
2019-01-23T05:41:03.833Z,43.33
2019-01-23T05:43:33.504Z,43.40
2019-01-23T05:46:03.159Z,44.97
2019-01-23T05:48:32.844Z,51.17
2019-01-23T05:51:02.623Z,46.17
2019-01-23T05:53:32.292Z,45.10
2019-01-23T05:56:01.977Z,44.20
2019-01-23T05:58:31.706Z,46.43
2019-01-23T06:01:01.459Z,49.77
2019-01-23T06:03:32.223Z,46.33
2019-01-23T06:06:02.358Z,45.70
2019-01-23T06:08:33.441Z,48.13
2019-01-23T06:11:03.127Z,46.30
2019-01-23T06:13:32.795Z,47.03
2019-01-23T06:16:02.449Z,48.17
2019-01-23T06:18:32.155Z,52.80
2019-01-23T06:21:01.834Z,47.23
2019-01-23T06:23:31.489Z,49.03
2019-01-23T06:26:01.190Z,50.10
2019-01-23T06:28:30.857Z,48.23
2019-01-23T06:31:00.653Z,49.03
2019-01-23T06:33:31.033Z,47.57
2019-01-23T06:36:00.780Z,52.63
2019-01-23T06:38:30.439Z,51.87
2019-01-23T06:41:00.133Z,48.40
2019-01-23T06:43:29.808Z,49.73
2019-01-23T06:45:59.488Z,46.93
2019-01-23T06:48:29.883Z,49.43
2019-01-23T06:50:59.523Z,50.90
2019-01-23T06:53:29.795Z,45.23
2019-01-23T06:56:00.735Z,47.63
2019-01-23T06:58:30.403Z,49.43
2019-01-23T07:01:00.118Z,50.50
2019-01-23T07:03:29.951Z,51.37
2019-01-23T07:05:59.687Z,46.07
2019-01-23T07:08:29.690Z,45.70
2019-01-23T07:10:59.364Z,48.70
2019-01-23T07:13:29.034Z,47.47
2019-01-23T07:15:58.837Z,45.53
2019-01-23T07:18:28.604Z,47.30
2019-01-23T07:20:59.243Z,45.00
2019-01-23T07:23:29.003Z,45.83
2019-01-23T07:25:58.685Z,48.30
2019-01-23T07:28:28.394Z,51.60
2019-01-23T07:30:58.209Z,45.30
2019-01-23T07:33:27.936Z,47.47
2019-01-23T07:35:57.600Z,48.00
2019-01-23T07:38:27.305Z,45.67
2019-01-23T07:40:56.967Z,49.07
2019-01-23T07:43:26.758Z,46.30
2019-01-23T07:45:56.638Z,47.30
2019-01-23T07:48:26.300Z,50.40
2019-01-23T07:50:56.024Z,47.83
2019-01-23T07:53:25.744Z,46.47
2019-01-23T07:55:55.432Z,48.20
2019-01-23T07:58:25.095Z,46.17
2019-01-23T08:00:54.771Z,48.03
2019-01-23T08:03:24.444Z,46.17
2019-01-23T08:05:54.101Z,47.40
2019-01-23T08:08:25.452Z,45.27
2019-01-23T08:10:55.469Z,45.87
2019-01-23T08:13:25.123Z,50.47
2019-01-23T08:15:54.891Z,45.50
2019-01-23T08:18:24.717Z,47.40
2019-01-23T08:20:54.327Z,49.53
2019-01-23T08:23:24.013Z,46.90
2019-01-23T08:25:53.741Z,45.83
2019-01-23T08:28:23.395Z,45.33
2019-01-23T08:30:53.072Z,44.47
2019-01-23T08:33:22.727Z,46.23
2019-01-23T08:35:52.388Z,45.43
2019-01-23T08:38:22.352Z,45.17
2019-01-23T08:40:52.147Z,46.50
2019-01-23T08:43:21.806Z,45.80
2019-01-23T08:45:51.492Z,47.70
2019-01-23T08:48:22.445Z,45.57
2019-01-23T08:50:52.114Z,46.40
2019-01-23T08:53:24.563Z,47.03
2019-01-23T08:55:54.241Z,49.03
2019-01-23T08:58:23.904Z,50.50
2019-01-23T09:00:53.599Z,53.90
2019-01-23T09:03:23.251Z,51.33
2019-01-23T09:05:52.904Z,51.23
2019-01-23T09:08:22.597Z,54.77
2019-01-23T09:10:52.428Z,54.70
2019-01-23T09:13:22.095Z,55.57
2019-01-23T09:15:51.779Z,50.40
2019-01-23T09:18:21.445Z,49.40
2019-01-23T09:20:51.134Z,49.23
2019-01-23T09:23:20.897Z,53.80
2019-01-23T09:25:51.669Z,53.37
2019-01-23T09:28:22.809Z,53.20
2019-01-23T09:30:59.810Z,52.13
2019-01-23T09:33:42.078Z,58.43
2019-01-23T09:36:16.209Z,55.07
2019-01-23T09:39:02.268Z,55.00
2019-01-23T09:42:03.664Z,52.43
2019-01-23T09:44:54.539Z,53.60
2019-01-23T09:47:43.204Z,53.27
2019-01-23T09:50:29.121Z,50.53
2019-01-23T09:53:06.229Z,51.07
2019-01-23T09:55:35.883Z,51.47
2019-01-23T09:58:05.856Z,51.80
2019-01-23T10:00:35.556Z,50.20
2019-01-23T10:03:05.230Z,58.20
2019-01-23T10:05:34.873Z,48.53
2019-01-23T10:08:05.061Z,51.50
2019-01-23T10:10:34.947Z,52.67
2019-01-23T10:13:04.625Z,49.10
2019-01-23T10:15:41.622Z,50.73
2019-01-23T10:18:11.778Z,51.00
2019-01-23T10:20:41.487Z,51.97
2019-01-23T10:23:11.215Z,53.10
2019-01-23T10:25:40.917Z,56.93
2019-01-23T10:28:10.591Z,49.37
2019-01-23T10:30:40.283Z,48.50
2019-01-23T10:33:09.939Z,53.00
2019-01-23T10:35:39.600Z,53.63
2019-01-23T10:38:09.309Z,51.20
2019-01-23T10:40:38.984Z,57.13
2019-01-23T10:43:08.634Z,51.13
2019-01-23T10:45:38.334Z,49.57
2019-01-23T10:48:08.004Z,53.73
2019-01-23T10:50:37.654Z,52.17
2019-01-23T10:53:07.412Z,51.77
2019-01-23T10:55:37.103Z,49.70
2019-01-23T10:58:06.761Z,47.17
2019-01-23T11:00:37.957Z,52.77
2019-01-23T11:03:10.083Z,51.50
2019-01-23T11:05:39.509Z,50.47
2019-01-23T11:08:09.315Z,50.30
2019-01-23T11:10:39.024Z,52.97
2019-01-23T11:13:10.379Z,49.73
2019-01-23T11:15:40.080Z,49.67
2019-01-23T11:18:09.801Z,48.80
2019-01-23T11:20:39.453Z,53.43
2019-01-23T11:23:09.406Z,48.23
2019-01-23T11:25:39.090Z,49.73
2019-01-23T11:28:08.749Z,47.77
2019-01-23T11:30:38.433Z,48.40
2019-01-23T11:33:08.126Z,47.03
2019-01-23T11:35:38.177Z,46.70
2019-01-23T11:38:07.870Z,47.17
2019-01-23T11:40:37.535Z,46.23
2019-01-23T11:43:07.402Z,50.90
2019-01-23T11:45:37.106Z,48.87
2019-01-23T11:48:07.066Z,46.83
2019-01-23T11:50:36.740Z,46.47
2019-01-23T11:53:07.544Z,48.47
2019-01-23T11:55:38.691Z,49.30
2019-01-23T11:58:08.363Z,48.70
2019-01-23T12:00:38.199Z,48.63
2019-01-23T12:03:07.869Z,46.63
2019-01-23T12:05:37.522Z,46.63
2019-01-23T12:08:07.298Z,46.73
2019-01-23T12:10:36.963Z,45.07
2019-01-23T12:13:06.629Z,44.80
2019-01-23T12:15:40.804Z,46.60
2019-01-23T12:18:07.798Z,50.07
2019-01-23T12:20:37.757Z,48.93
2019-01-23T12:23:07.477Z,50.27
2019-01-23T12:25:37.518Z,49.07
2019-01-23T12:28:07.935Z,49.17
2019-01-23T12:30:37.976Z,48.10
2019-01-23T12:33:07.640Z,48.63
2019-01-23T12:35:37.297Z,48.97
2019-01-23T12:38:07.999Z,46.70
2019-01-23T12:40:37.671Z,48.17
2019-01-23T12:43:07.383Z,49.60
2019-01-23T12:45:37.138Z,49.97
2019-01-23T12:48:06.800Z,49.60
2019-01-23T12:50:36.527Z,48.20
2019-01-23T12:53:06.411Z,47.03
2019-01-23T12:55:37.550Z,50.23
2019-01-23T12:58:07.295Z,48.23
2019-01-23T13:00:37.382Z,50.80
2019-01-23T13:03:07.142Z,53.70
2019-01-23T13:05:36.811Z,48.80
2019-01-23T13:08:07.827Z,49.33
2019-01-23T13:10:37.476Z,48.20
2019-01-23T13:13:07.127Z,51.60
2019-01-23T13:15:36.823Z,48.93
2019-01-23T13:18:06.487Z,49.40
2019-01-23T13:20:36.160Z,52.73
2019-01-23T13:23:06.997Z,46.07
2019-01-23T13:25:36.665Z,47.57
2019-01-23T13:28:06.725Z,49.00
2019-01-23T13:30:36.418Z,51.93
2019-01-23T13:33:06.176Z,48.13
2019-01-23T13:35:38.650Z,47.37
2019-01-23T13:38:12.569Z,47.50
2019-01-23T13:40:42.636Z,47.30
2019-01-23T13:43:12.302Z,46.07
2019-01-23T13:45:41.985Z,46.37
2019-01-23T13:48:11.865Z,46.23
2019-01-23T13:50:41.599Z,48.37
2019-01-23T13:53:12.531Z,46.10
2019-01-23T13:55:42.205Z,46.17
2019-01-23T13:58:11.926Z,44.73
2019-01-23T14:00:43.111Z,53.07
2019-01-23T14:03:12.976Z,47.53
2019-01-23T14:05:42.654Z,44.40
2019-01-23T14:08:14.360Z,48.40
2019-01-23T14:10:43.989Z,49.43
2019-01-23T14:13:13.752Z,46.17
2019-01-23T14:15:43.529Z,47.57
2019-01-23T14:18:13.405Z,49.00
2019-01-23T14:20:43.083Z,45.83
2019-01-23T14:23:12.776Z,51.13
2019-01-23T14:25:42.461Z,50.10
2019-01-23T14:28:12.384Z,48.13
2019-01-23T14:30:44.466Z,49.73
2019-01-23T14:33:14.124Z,46.80
2019-01-23T14:35:43.800Z,48.90
2019-01-23T14:38:13.572Z,44.90
2019-01-23T14:40:43.344Z,47.43
2019-01-23T14:43:13.005Z,44.67
2019-01-23T14:45:43.042Z,45.23
2019-01-23T14:48:12.704Z,43.60
2019-01-23T14:50:42.388Z,48.57
2019-01-23T14:53:12.255Z,47.40
2019-01-23T14:55:42.138Z,47.90
2019-01-23T14:58:12.078Z,47.53
2019-01-23T15:00:41.766Z,46.67
2019-01-23T15:03:11.421Z,44.20
2019-01-23T15:05:41.112Z,44.93
2019-01-23T15:08:10.787Z,44.10
2019-01-23T15:10:40.496Z,44.20
2019-01-23T15:13:10.165Z,46.20
2019-01-23T15:15:39.949Z,43.67
2019-01-23T15:18:09.600Z,45.03
2019-01-23T15:20:40.280Z,44.50
2019-01-23T15:23:10.001Z,45.43
2019-01-23T15:25:39.639Z,44.10
2019-01-23T15:28:09.600Z,45.97
2019-01-23T15:30:39.300Z,49.13
2019-01-23T15:33:08.975Z,46.07
2019-01-23T15:35:38.646Z,43.73
2019-01-23T15:38:08.338Z,45.90
2019-01-23T15:40:38.709Z,47.10
2019-01-23T15:43:08.463Z,45.60
2019-01-23T15:45:38.151Z,48.43
2019-01-23T15:48:07.898Z,47.10
2019-01-23T15:50:37.591Z,46.73
2019-01-23T15:53:07.380Z,50.47
2019-01-23T15:55:37.050Z,52.30
2019-01-23T15:58:07.052Z,58.73
2019-01-23T16:00:36.779Z,60.20
2019-01-23T16:03:06.587Z,51.27
2019-01-23T16:05:36.252Z,51.70
2019-01-23T16:08:06.313Z,49.17
2019-01-23T16:10:35.972Z,50.57
2019-01-23T16:13:06.097Z,50.87
2019-01-23T16:15:35.793Z,49.80
2019-01-23T16:18:05.547Z,50.00
2019-01-23T16:20:36.694Z,52.83
2019-01-23T16:23:06.769Z,48.00
2019-01-23T16:25:36.493Z,48.30
2019-01-23T16:28:06.172Z,60.63
2019-01-23T16:30:38.325Z,52.97
2019-01-23T16:33:07.970Z,49.90
2019-01-23T16:35:38.747Z,49.20
2019-01-23T16:38:09.801Z,47.17
2019-01-23T16:40:39.662Z,53.73
2019-01-23T16:43:09.380Z,48.93
2019-01-23T16:45:39.073Z,46.03
2019-01-23T16:48:08.733Z,47.50
2019-01-23T16:50:38.450Z,49.63
2019-01-23T16:53:08.235Z,45.87
2019-01-23T16:55:37.906Z,45.90
2019-01-23T16:58:09.472Z,44.63
2019-01-23T17:00:39.755Z,46.57
2019-01-23T17:03:10.401Z,44.57
2019-01-23T17:05:40.145Z,45.63
2019-01-23T17:08:10.932Z,45.27
2019-01-23T17:10:40.616Z,55.88
2019-01-23T17:13:10.426Z,49.50
2019-01-23T17:15:40.100Z,47.33
2019-01-23T17:18:09.836Z,45.53
2019-01-23T17:20:43.612Z,46.77
2019-01-23T17:23:13.374Z,45.40
2019-01-23T17:25:44.134Z,48.43
2019-01-23T17:28:15.308Z,45.27
2019-01-23T17:30:45.106Z,47.93
2019-01-23T17:33:14.758Z,48.83
2019-01-23T17:35:44.720Z,50.53
2019-01-23T17:38:14.414Z,55.87
2019-01-23T17:40:44.097Z,55.60
2019-01-23T17:43:14.722Z,54.63
2019-01-23T17:45:45.303Z,56.77
2019-01-23T17:48:15.364Z,60.40
2019-01-23T17:50:45.253Z,59.53
2019-01-23T17:53:14.939Z,55.60
2019-01-23T17:55:44.592Z,51.80
2019-01-23T17:58:14.268Z,51.73
2019-01-23T18:00:51.725Z,55.33
2019-01-23T18:03:21.505Z,53.50
2019-01-23T18:05:51.409Z,57.00
2019-01-23T18:08:21.109Z,49.80
2019-01-23T18:10:50.787Z,49.47
2019-01-23T18:13:20.440Z,49.97
2019-01-23T18:15:51.779Z,49.80
2019-01-23T18:18:21.522Z,54.27
2019-01-23T18:20:51.188Z,54.23
2019-01-23T18:23:20.934Z,50.73
2019-01-23T18:25:50.885Z,50.07
2019-01-23T18:28:20.785Z,50.20
2019-01-23T18:30:57.645Z,47.70
2019-01-23T18:33:46.653Z,48.53
2019-01-23T18:36:35.687Z,46.53
2019-01-23T18:39:21.812Z,50.80
2019-01-23T18:42:01.997Z,47.67
2019-01-23T18:44:53.769Z,46.50
2019-01-23T18:47:33.631Z,47.23
2019-01-23T18:50:31.415Z,45.60
2019-01-23T18:53:01.152Z,44.63
2019-01-23T18:55:31.033Z,43.60
2019-01-23T18:58:00.916Z,43.67
2019-01-23T19:00:31.075Z,45.33
2019-01-23T19:03:06.919Z,46.17
2019-01-23T19:05:32.537Z,45.80
2019-01-23T19:08:02.231Z,49.77
2019-01-23T19:10:31.921Z,49.70
2019-01-23T19:13:01.579Z,49.37
2019-01-23T19:15:31.567Z,48.47
2019-01-23T19:18:02.393Z,49.57
2019-01-23T19:20:32.128Z,50.70
2019-01-23T19:23:01.818Z,52.60
2019-01-23T19:25:31.488Z,56.25
2019-01-23T19:28:01.144Z,53.97
2019-01-23T19:30:30.857Z,56.13
2019-01-23T19:33:00.923Z,52.27
2019-01-23T19:35:30.632Z,56.17
2019-01-23T19:38:00.384Z,53.30
2019-01-23T19:40:30.075Z,50.60
2019-01-23T19:42:59.822Z,48.27
2019-01-23T19:45:29.530Z,48.60
2019-01-23T19:47:59.193Z,54.70
2019-01-23T19:50:29.075Z,52.47
2019-01-23T19:52:58.826Z,50.60
2019-01-23T19:55:28.501Z,48.63
2019-01-23T19:57:58.168Z,52.47
2019-01-23T20:00:28.338Z,54.03
2019-01-23T20:02:58.015Z,57.03
2019-01-23T20:05:27.675Z,52.17
2019-01-23T20:07:57.364Z,48.60
2019-01-23T20:10:27.042Z,48.60
2019-01-23T20:12:56.685Z,49.40
2019-01-23T20:15:26.478Z,49.47
2019-01-23T20:17:57.253Z,49.43
2019-01-23T20:20:27.197Z,52.97
2019-01-23T20:22:56.909Z,50.30
2019-01-23T20:25:28.903Z,51.90
2019-01-23T20:27:58.706Z,52.37
2019-01-23T20:30:35.264Z,52.67
2019-01-23T20:33:05.632Z,57.43
2019-01-23T20:35:35.288Z,52.77
2019-01-23T20:38:05.800Z,51.80
2019-01-23T20:40:35.533Z,55.93
2019-01-23T20:43:06.432Z,52.03
2019-01-23T20:45:36.235Z,54.00
2019-01-23T20:48:07.673Z,55.57
2019-01-23T20:50:37.341Z,57.17
2019-01-23T20:53:07.351Z,54.40
2019-01-23T20:55:37.029Z,53.00
2019-01-23T20:58:08.452Z,54.23
2019-01-23T21:00:39.407Z,54.77
2019-01-23T21:03:09.164Z,50.17
2019-01-23T21:05:38.839Z,50.57
2019-01-23T21:08:08.767Z,50.30
2019-01-23T21:10:38.420Z,54.67
2019-01-23T21:13:08.072Z,50.00
2019-01-23T21:15:38.031Z,51.53
2019-01-23T21:18:09.119Z,54.47
2019-01-23T21:20:38.998Z,57.23
2019-01-23T21:23:10.704Z,53.93
2019-01-23T21:25:41.186Z,49.30
2019-01-23T21:28:10.848Z,51.77
2019-01-23T21:30:40.542Z,51.97
2019-01-23T21:33:10.208Z,52.37
2019-01-23T21:35:39.990Z,48.40
2019-01-23T21:38:09.671Z,50.70
2019-01-23T21:40:39.334Z,50.43
2019-01-23T21:43:09.066Z,51.13
2019-01-23T21:45:38.766Z,54.57
2019-01-23T21:48:08.430Z,57.37
2019-01-23T21:50:38.104Z,53.40
2019-01-23T21:53:07.799Z,56.40
2019-01-23T21:55:37.590Z,57.43
2019-01-23T21:58:07.261Z,58.77
2019-01-23T22:00:44.532Z,54.23
2019-01-23T22:03:14.192Z,54.57
2019-01-23T22:05:44.037Z,56.17
2019-01-23T22:08:15.458Z,52.43
2019-01-23T22:10:45.442Z,53.67
2019-01-23T22:13:15.227Z,55.30
2019-01-23T22:15:44.912Z,58.37
2019-01-23T22:18:14.646Z,57.23
2019-01-23T22:20:44.312Z,56.07
2019-01-23T22:23:14.024Z,56.83
2019-01-23T22:25:44.710Z,56.20
2019-01-23T22:28:14.371Z,55.40
2019-01-23T22:30:44.073Z,57.73
2019-01-23T22:33:13.950Z,51.70
2019-01-23T22:35:43.620Z,59.67
2019-01-23T22:38:13.397Z,54.90
2019-01-23T22:40:43.094Z,62.93
2019-01-23T22:43:15.121Z,58.57
2019-01-23T22:45:44.156Z,58.57
2019-01-23T22:48:13.815Z,57.90
2019-01-23T22:50:44.593Z,56.07
2019-01-23T22:53:14.350Z,61.30
2019-01-23T22:55:44.108Z,56.73
2019-01-23T22:58:13.951Z,57.60
2019-01-23T23:01:00.373Z,53.53
2019-01-23T23:03:30.128Z,56.37
2019-01-23T23:05:59.770Z,53.70
2019-01-23T23:08:29.466Z,54.00
2019-01-23T23:10:59.262Z,54.37
2019-01-23T23:13:29.128Z,54.87
2019-01-23T23:15:58.943Z,54.13
2019-01-23T23:18:28.596Z,55.00
2019-01-23T23:20:59.809Z,58.67
2019-01-23T23:23:29.512Z,54.13
2019-01-23T23:25:59.184Z,56.97
2019-01-23T23:28:28.848Z,54.10
2019-01-23T23:30:58.637Z,51.37
2019-01-23T23:33:28.694Z,52.10
2019-01-23T23:35:58.606Z,55.73
2019-01-23T23:38:28.306Z,53.40
2019-01-23T23:40:58.322Z,52.77
2019-01-23T23:43:27.990Z,53.07
2019-01-23T23:45:57.689Z,52.00
2019-01-23T23:48:27.346Z,53.70
2019-01-23T23:50:57.010Z,55.80
2019-01-23T23:53:26.693Z,54.53
2019-01-23T23:55:56.354Z,52.53
2019-01-23T23:58:26.013Z,49.87
